Terminal Aerodrome Forecast
Issued by NWS Sioux Falls, SD

Home | Current Version | Previous Version | Text Only | Print | Product List | Glossary On
Versions: 1 2 3 4 5 6 7 8 9 10 11 12 13 14 15 16 17
960
FTUS43 KFSD 231141 AAD
TAFFSD
TAF AMD
KFSD 231141Z 2312/2412 03011G19KT P6SM OVC012
     FM231500 05014G23KT P6SM SCT015 OVC150
     FM231800 05016G24KT 4SM -SN OVC015
     FM232100 05018G26KT 2SM -SN OVC010
     FM232300 05020G29KT 1SM -SN OVC008
     FM240000 05020G30KT 3/4SM -SN BR OVC008
     FM240400 04023G33KT 1/4SM SN BLSN OVC008
     FM240700 03023G33KT 1/2SM SN BLSN OVC008=

USA.gov is the U.S. government's official web portal to all federal, state and local government web resources and services.